Time;durP1;ratioP1;P1;durP2;ratioP2;P2;SDS_P1;SDS_P2;PMS_P1;PMS_P2;Temp;Humidity;BMP_temperature;BMP_pressure;BME280_temperature;BME280_humidity;BME280_pressure;Samples;Min_cycle;Max_cycle;Signal;HPM_P1;HPM_P2
2023/09/17 00:01:09;;;;;;;12.13;8.65;;;17.50;99.90;;;;;;5001819;28;20046;-35
2023/09/17 00:03:35;;;;;;;11.32;9.25;;;17.50;99.90;;;;;;5006689;28;20555;-35
2023/09/17 00:06:01;;;;;;;11.13;9.02;;;17.50;99.90;;;;;;5006196;28;20050;-35
2023/09/17 00:08:27;;;;;;;10.38;8.43;;;17.40;99.90;;;;;;5004563;28;20046;-35
2023/09/17 00:10:53;;;;;;;11.73;8.55;;;17.40;99.90;;;;;;5009023;28;20443;-35
2023/09/17 00:13:19;;;;;;;10.50;8.43;;;17.40;99.90;;;;;;5008420;28;20545;-34
2023/09/17 00:15:45;;;;;;;11.88;9.38;;;17.40;99.90;;;;;;5005193;28;20099;-35
2023/09/17 00:18:11;;;;;;;9.88;8.55;;;17.40;99.90;;;;;;5007008;28;20077;-35
2023/09/17 00:20:37;;;;;;;10.55;8.25;;;17.30;99.90;;;;;;5007674;28;20049;-35
2023/09/17 00:23:03;;;;;;;10.82;7.50;;;17.30;99.90;;;;;;5008095;28;20049;-34
2023/09/17 00:25:29;;;;;;;11.55;9.18;;;17.30;99.90;;;;;;5001385;28;20580;-35
2023/09/17 00:27:54;;;;;;;12.13;9.05;;;17.30;99.90;;;;;;5001920;28;20091;-34
2023/09/17 00:30:20;;;;;;;10.30;8.38;;;17.30;99.90;;;;;;5005701;28;20084;-35
2023/09/17 00:32:45;;;;;;;12.05;9.40;;;17.30;99.90;;;;;;5007511;28;20053;-35
2023/09/17 00:35:14;;;;;;;12.75;7.85;;;17.40;99.90;;;;;;5007286;28;20053;-35
2023/09/17 00:37:41;;;;;;;9.15;7.45;;;17.40;99.90;;;;;;5006077;28;20511;-35
2023/09/17 00:40:11;;;;;;;13.68;9.25;;;17.40;99.90;;;;;;5005028;28;20042;-34
2023/09/17 00:42:37;;;;;;;9.50;8.18;;;17.40;99.90;;;;;;5003882;28;20058;-35
2023/09/17 00:45:04;;;;;;;9.88;8.40;;;17.40;99.90;;;;;;5003118;28;20296;-35
2023/09/17 00:47:31;;;;;;;10.90;7.82;;;17.40;99.90;;;;;;5004608;28;20590;-34
2023/09/17 00:49:57;;;;;;;9.32;7.32;;;17.40;99.90;;;;;;5007792;28;20049;-34
2023/09/17 00:52:23;;;;;;;11.38;8.93;;;17.40;99.90;;;;;;5003917;28;20538;-34
2023/09/17 00:54:51;;;;;;;12.13;8.20;;;17.40;99.90;;;;;;5007756;28;20049;-34
2023/09/17 00:57:17;;;;;;;12.15;8.50;;;17.40;99.90;;;;;;5005247;28;20046;-34
2023/09/17 00:59:44;;;;;;;10.70;8.60;;;17.40;99.90;;;;;;5005679;28;20566;-34
2023/09/17 01:02:12;;;;;;;11.52;8.35;;;17.40;99.90;;;;;;5004243;28;20058;-34
2023/09/17 01:04:42;;;;;;;11.13;9.30;;;17.40;99.90;;;;;;5006769;28;20053;-34
2023/09/17 01:07:09;;;;;;;10.68;8.43;;;17.40;99.90;;;;;;5003841;28;20053;-34
2023/09/17 01:09:37;;;;;;;10.35;8.18;;;17.30;99.90;;;;;;5004824;28;20136;-34
2023/09/17 01:12:03;;;;;;;11.25;9.10;;;17.30;99.90;;;;;;5004677;28;20077;-34
2023/09/17 01:14:29;;;;;;;12.80;8.73;;;17.30;99.90;;;;;;5006676;28;20403;-34
2023/09/17 01:16:56;;;;;;;9.52;7.47;;;17.30;99.90;;;;;;5003606;28;20054;-34
2023/09/17 01:19:29;;;;;;;12.00;9.45;;;17.30;99.90;;;;;;5002393;28;20046;-34
2023/09/17 01:22:35;;;;;;;10.30;8.48;;;17.30;99.90;;;;;;5002842;28;20049;-34
2023/09/17 01:25:42;;;;;;;11.95;8.88;;;17.20;99.90;;;;;;5006528;28;20050;-34
2023/09/17 01:28:13;;;;;;;10.90;9.30;;;17.20;99.90;;;;;;5003117;28;20050;-34
2023/09/17 01:30:41;;;;;;;11.75;9.20;;;17.20;99.90;;;;;;5005664;28;20115;-33
2023/09/17 01:33:11;;;;;;;10.05;8.80;;;17.20;99.90;;;;;;5005703;28;20049;-34
2023/09/17 01:36:11;;;;;;;10.77;8.02;;;17.20;99.90;;;;;;4987503;28;20503;-33
2023/09/17 01:38:49;;;;;;;10.43;7.32;;;17.20;99.90;;;;;;4999439;28;20080;-34
2023/09/17 01:41:16;;;;;;;13.25;8.63;;;17.20;99.90;;;;;;5005052;28;20046;-34
2023/09/17 01:43:44;;;;;;;11.40;8.65;;;17.20;99.90;;;;;;5002944;28;20133;-34
2023/09/17 01:46:10;;;;;;;10.57;8.43;;;17.20;99.90;;;;;;4989341;28;20046;-34
2023/09/17 01:48:38;;;;;;;10.45;7.88;;;17.20;99.90;;;;;;4987578;28;20498;-34
2023/09/17 01:51:05;;;;;;;11.05;8.50;;;17.10;99.90;;;;;;5004461;28;20515;-34
2023/09/17 01:53:32;;;;;;;11.45;8.20;;;17.10;99.90;;;;;;4986528;28;20172;-34
2023/09/17 01:55:57;;;;;;;10.45;7.38;;;17.10;99.90;;;;;;5002043;28;20054;-34
2023/09/17 01:58:23;;;;;;;8.57;7.43;;;17.20;99.90;;;;;;5005925;28;20103;-34
2023/09/17 02:00:52;;;;;;;10.88;8.48;;;17.20;99.90;;;;;;5006166;28;20050;-33
2023/09/17 02:03:18;;;;;;;10.25;8.00;;;17.20;99.90;;;;;;5004485;28;20507;-34
2023/09/17 02:05:44;;;;;;;9.45;8.15;;;17.20;99.90;;;;;;5009509;28;20135;-34
2023/09/17 02:08:09;;;;;;;9.93;7.70;;;17.20;99.90;;;;;;5007387;28;20100;-34
2023/09/17 02:10:35;;;;;;;10.80;8.98;;;17.10;99.90;;;;;;4995118;28;20119;-34
2023/09/17 02:13:01;;;;;;;11.57;8.40;;;17.10;99.90;;;;;;5004371;28;20045;-34
2023/09/17 02:15:27;;;;;;;12.88;9.43;;;17.10;99.90;;;;;;5004903;28;20149;-34
2023/09/17 02:17:53;;;;;;;12.93;9.25;;;17.10;99.90;;;;;;5004228;28;20054;-34
2023/09/17 02:20:18;;;;;;;11.25;9.98;;;17.00;99.90;;;;;;5005174;28;20053;-34
2023/09/17 02:22:45;;;;;;;14.48;10.63;;;17.00;99.90;;;;;;4980051;28;20064;-34
2023/09/17 02:25:11;;;;;;;12.32;9.45;;;17.00;99.90;;;;;;4990649;28;20050;-34
2023/09/17 02:27:38;;;;;;;11.45;10.15;;;17.00;99.90;;;;;;5002585;28;20416;-34
2023/09/17 02:30:04;;;;;;;11.70;9.57;;;16.90;99.90;;;;;;5009485;28;20395;-34
2023/09/17 02:32:31;;;;;;;11.20;10.07;;;16.90;99.90;;;;;;5008215;28;20069;-34
2023/09/17 02:34:57;;;;;;;10.82;8.75;;;16.90;99.90;;;;;;5006466;28;20046;-34
2023/09/17 02:37:23;;;;;;;13.75;10.18;;;16.80;99.90;;;;;;5006503;28;20406;-34
2023/09/17 02:39:49;;;;;;;13.68;10.00;;;16.80;99.90;;;;;;5007940;28;20396;-34
2023/09/17 02:42:16;;;;;;;11.57;9.43;;;16.70;99.90;;;;;;5005888;28;20057;-34
2023/09/17 02:44:42;;;;;;;11.65;9.80;;;16.70;99.90;;;;;;5009336;28;20083;-34
2023/09/17 02:47:09;;;;;;;13.32;9.77;;;16.70;99.90;;;;;;5003088;28;20440;-34
2023/09/17 02:49:34;;;;;;;10.90;9.18;;;16.70;99.90;;;;;;5004902;28;20056;-33
2023/09/17 02:52:00;;;;;;;14.88;10.55;;;16.70;99.90;;;;;;5007613;28;20049;-34
2023/09/17 02:54:26;;;;;;;13.32;9.90;;;16.60;99.90;;;;;;5004199;28;20042;-34
2023/09/17 02:56:52;;;;;;;13.27;9.82;;;16.60;99.90;;;;;;5007445;28;20050;-34
2023/09/17 02:59:17;;;;;;;11.13;8.90;;;16.60;99.90;;;;;;5006000;28;20423;-33
2023/09/17 03:01:43;;;;;;;12.80;9.93;;;16.60;99.90;;;;;;4990421;28;20128;-34
2023/09/17 03:04:09;;;;;;;12.32;9.65;;;16.70;99.90;;;;;;5009284;28;20199;-34
2023/09/17 03:06:34;;;;;;;15.63;10.48;;;16.70;99.90;;;;;;5005854;28;20058;-34
2023/09/17 03:09:01;;;;;;;11.35;10.15;;;16.70;99.90;;;;;;5010016;28;20204;-34
2023/09/17 03:11:27;;;;;;;14.68;10.07;;;16.70;99.90;;;;;;5004963;28;20062;-33
2023/09/17 03:13:55;;;;;;;12.48;10.40;;;16.70;99.90;;;;;;4990109;28;20418;-34
2023/09/17 03:16:21;;;;;;;12.15;10.48;;;16.70;99.90;;;;;;5005604;28;20648;-33
2023/09/17 03:18:46;;;;;;;12.55;9.63;;;16.70;99.90;;;;;;5004689;28;20427;-34
2023/09/17 03:21:12;;;;;;;12.70;10.23;;;16.70;99.90;;;;;;5005694;28;20499;-34
2023/09/17 03:23:38;;;;;;;12.88;11.18;;;16.70;99.90;;;;;;4999863;28;20518;-34
2023/09/17 03:26:05;;;;;;;14.00;11.15;;;16.70;99.90;;;;;;5005842;28;20056;-34
2023/09/17 03:28:31;;;;;;;12.90;10.98;;;16.80;99.90;;;;;;4987709;28;20053;-33
2023/09/17 03:30:58;;;;;;;13.55;10.25;;;16.80;99.90;;;;;;5007634;28;20072;-34
2023/09/17 03:33:23;;;;;;;12.30;9.40;;;16.80;99.90;;;;;;5007132;28;20053;-34
2023/09/17 03:35:49;;;;;;;12.07;9.00;;;16.80;99.90;;;;;;5007077;28;20408;-34
2023/09/17 03:38:15;;;;;;;13.77;9.70;;;16.80;99.90;;;;;;5004518;28;20131;-34
2023/09/17 03:40:41;;;;;;;15.63;11.88;;;16.80;99.90;;;;;;4989891;28;20050;-34
2023/09/17 03:43:08;;;;;;;12.40;10.40;;;16.70;99.90;;;;;;5008559;28;20164;-34
2023/09/17 03:45:34;;;;;;;13.45;10.68;;;16.70;99.90;;;;;;5004166;28;20511;-34
2023/09/17 03:48:00;;;;;;;14.63;10.98;;;16.70;99.90;;;;;;5006568;28;20045;-34
2023/09/17 03:50:27;;;;;;;14.02;10.63;;;16.70;99.90;;;;;;5008423;28;20061;-34
2023/09/17 03:52:56;;;;;;;12.57;10.63;;;16.70;99.90;;;;;;5000987;28;20053;-33
2023/09/17 03:55:23;;;;;;;14.27;11.00;;;16.70;99.90;;;;;;5006741;28;20054;-34
2023/09/17 03:57:50;;;;;;;13.52;11.23;;;16.70;99.90;;;;;;4986623;28;20053;-34
2023/09/17 04:00:17;;;;;;;13.95;11.35;;;16.80;99.90;;;;;;5005882;28;20038;-34
2023/09/17 04:02:43;;;;;;;13.82;10.45;;;16.70;99.90;;;;;;5002712;28;20065;-34
2023/09/17 04:05:12;;;;;;;15.75;10.82;;;16.70;99.90;;;;;;5008400;28;20046;-34
2023/09/17 04:07:40;;;;;;;16.00;12.13;;;16.70;99.90;;;;;;5004376;28;20049;-34
2023/09/17 04:10:06;;;;;;;15.80;11.80;;;16.70;99.90;;;;;;4993167;28;20045;-45
2023/09/17 04:12:33;;;;;;;13.85;11.45;;;16.70;99.90;;;;;;5005974;28;20530;-34
2023/09/17 04:14:58;;;;;;;16.20;12.02;;;16.70;99.90;;;;;;5007882;28;20058;-34
2023/09/17 04:17:24;;;;;;;13.55;11.13;;;16.70;99.90;;;;;;4988635;28;20061;-34
2023/09/17 04:19:50;;;;;;;16.02;12.32;;;16.70;99.90;;;;;;5003445;28;20057;-34
2023/09/17 04:22:17;;;;;;;16.15;13.00;;;16.60;99.90;;;;;;5008298;28;20057;-34
2023/09/17 04:24:43;;;;;;;16.45;12.07;;;16.60;99.90;;;;;;5008520;28;20058;-34
2023/09/17 04:27:08;;;;;;;16.38;13.32;;;16.60;99.90;;;;;;5007209;28;20057;-33
2023/09/17 04:29:35;;;;;;;19.85;14.45;;;16.60;99.90;;;;;;5008126;28;20133;-34
2023/09/17 04:32:01;;;;;;;16.90;13.13;;;16.60;99.90;;;;;;5003442;28;20450;-34
2023/09/17 04:34:27;;;;;;;17.85;14.00;;;16.50;99.90;;;;;;5003644;28;20061;-34
2023/09/17 04:36:52;;;;;;;15.02;12.38;;;16.50;99.90;;;;;;4986662;28;20065;-34
2023/09/17 04:39:18;;;;;;;18.35;15.82;;;16.50;99.90;;;;;;5007300;28;20152;-34
2023/09/17 04:41:44;;;;;;;18.15;13.35;;;16.50;99.90;;;;;;5005456;28;20072;-34
2023/09/17 04:44:12;;;;;;;16.27;12.20;;;16.50;99.90;;;;;;5003531;28;20046;-34
2023/09/17 04:46:40;;;;;;;16.52;11.90;;;16.50;99.90;;;;;;5002356;28;20111;-34
2023/09/17 04:49:06;;;;;;;16.75;13.30;;;16.50;99.90;;;;;;5001003;28;20437;-34
2023/09/17 04:51:36;;;;;;;21.58;14.27;;;16.50;99.90;;;;;;5001300;28;20495;-34
2023/09/17 04:54:03;;;;;;;16.38;12.18;;;16.50;99.90;;;;;;5007397;28;20064;-34
2023/09/17 04:56:32;;;;;;;15.73;12.57;;;16.50;99.90;;;;;;5005997;28;20080;-34
2023/09/17 04:59:00;;;;;;;17.25;13.38;;;16.50;99.90;;;;;;5007162;28;20058;-34
2023/09/17 05:01:27;;;;;;;17.55;12.57;;;16.50;99.90;;;;;;5004752;28;20069;-34
2023/09/17 05:03:53;;;;;;;15.57;13.43;;;16.50;99.90;;;;;;4987410;28;20515;-33
2023/09/17 05:06:19;;;;;;;18.15;14.40;;;16.50;99.90;;;;;;5005235;28;20053;-33
2023/09/17 05:08:44;;;;;;;18.73;13.63;;;16.50;99.90;;;;;;4999858;28;20107;-34
2023/09/17 05:11:10;;;;;;;18.67;13.35;;;16.50;99.90;;;;;;5003219;28;20529;-34
2023/09/17 05:13:36;;;;;;;19.95;14.73;;;16.50;99.90;;;;;;5005809;28;20072;-33
2023/09/17 05:16:03;;;;;;;19.38;13.30;;;16.50;99.90;;;;;;5005979;28;20129;-34
2023/09/17 05:18:28;;;;;;;18.85;14.57;;;16.50;99.90;;;;;;5003847;28;20053;-34
2023/09/17 05:20:54;;;;;;;15.25;12.73;;;16.50;99.90;;;;;;5005279;28;20045;-34
2023/09/17 05:23:21;;;;;;;18.88;12.98;;;16.50;99.90;;;;;;5007233;28;20048;-34
2023/09/17 05:25:47;;;;;;;18.95;14.88;;;16.50;99.90;;;;;;5006330;28;20041;-33
2023/09/17 05:28:12;;;;;;;17.77;12.88;;;16.50;99.90;;;;;;5005290;28;20053;-34
2023/09/17 05:30:38;;;;;;;15.73;12.63;;;16.60;99.90;;;;;;5005187;28;20052;-34
2023/09/17 05:33:04;;;;;;;17.15;13.50;;;16.60;99.90;;;;;;5007871;28;20061;-33
2023/09/17 05:35:31;;;;;;;14.65;11.85;;;16.60;99.90;;;;;;5005866;28;20065;-34
2023/09/17 05:37:57;;;;;;;16.48;13.73;;;16.60;99.90;;;;;;5005185;28;20111;-34
2023/09/17 05:40:22;;;;;;;18.33;13.68;;;16.60;99.90;;;;;;5008044;28;20214;-34
2023/09/17 05:42:49;;;;;;;16.02;13.07;;;16.60;99.90;;;;;;5004546;28;20070;-35
2023/09/17 05:45:14;;;;;;;16.20;13.45;;;16.60;99.90;;;;;;5004613;28;20056;-34
2023/09/17 05:47:41;;;;;;;19.75;13.00;;;16.60;99.90;;;;;;5002688;28;20046;-34
2023/09/17 05:50:08;;;;;;;19.70;13.55;;;16.70;99.90;;;;;;4986520;28;20053;-34
2023/09/17 05:52:33;;;;;;;19.95;13.52;;;16.70;99.90;;;;;;4999036;28;20632;-34
2023/09/17 05:55:00;;;;;;;18.10;12.82;;;16.70;99.90;;;;;;5006322;28;20402;-34
2023/09/17 05:57:26;;;;;;;18.15;13.82;;;16.70;99.90;;;;;;5006733;28;20065;-33
2023/09/17 05:59:52;;;;;;;17.05;12.30;;;16.80;99.90;;;;;;5005065;28;20049;-34
2023/09/17 06:02:17;;;;;;;16.30;11.88;;;16.80;99.90;;;;;;4987747;28;20173;-41
2023/09/17 06:04:43;;;;;;;16.75;12.55;;;16.80;99.90;;;;;;4987286;28;20085;-34
2023/09/17 06:07:09;;;;;;;16.65;12.18;;;16.90;99.90;;;;;;5008162;28;20058;-34
2023/09/17 06:09:35;;;;;;;18.27;12.70;;;16.90;99.90;;;;;;4990576;28;20057;-33
2023/09/17 06:12:00;;;;;;;15.05;11.13;;;16.90;99.90;;;;;;5009614;28;20058;-34
2023/09/17 06:14:26;;;;;;;16.70;12.25;;;16.90;99.90;;;;;;5009657;28;20046;-33
2023/09/17 06:16:52;;;;;;;16.27;12.25;;;16.90;99.90;;;;;;5006518;28;20518;-34
2023/09/17 06:19:17;;;;;;;18.00;14.25;;;16.90;99.90;;;;;;5008616;28;20054;-33
2023/09/17 06:21:43;;;;;;;15.18;12.18;;;16.90;99.90;;;;;;5005377;28;20104;-34
2023/09/17 06:24:09;;;;;;;19.20;14.77;;;16.90;99.90;;;;;;5009898;28;20415;-34
2023/09/17 06:26:35;;;;;;;19.88;14.23;;;16.90;99.90;;;;;;5004563;28;20124;-34
2023/09/17 06:29:01;;;;;;;15.30;11.90;;;16.90;99.90;;;;;;5005238;28;20053;-33
2023/09/17 06:31:27;;;;;;;16.98;13.02;;;16.90;99.90;;;;;;5008403;28;20061;-34
2023/09/17 06:33:53;;;;;;;18.05;11.85;;;16.90;99.90;;;;;;5005411;28;20045;-34
2023/09/17 06:36:19;;;;;;;20.13;14.45;;;16.90;99.90;;;;;;5009146;28;20689;-34
2023/09/17 06:38:46;;;;;;;16.17;12.85;;;16.90;99.90;;;;;;5007549;28;20053;-34
2023/09/17 06:41:12;;;;;;;17.38;13.05;;;16.90;99.90;;;;;;5003333;28;20046;-34
2023/09/17 06:43:39;;;;;;;19.30;13.95;;;16.90;99.90;;;;;;4989960;28;20495;-33
2023/09/17 06:46:04;;;;;;;16.90;13.23;;;16.80;99.90;;;;;;5003820;28;20115;-34
2023/09/17 06:48:30;;;;;;;16.85;13.30;;;16.80;99.90;;;;;;4998728;28;20054;-34
2023/09/17 06:50:57;;;;;;;18.13;13.98;;;16.80;99.90;;;;;;5000628;28;20065;-34
2023/09/17 06:53:23;;;;;;;20.60;15.73;;;16.80;99.90;;;;;;5006254;28;20729;-34
2023/09/17 06:55:49;;;;;;;18.05;13.88;;;16.80;99.90;;;;;;5006246;28;20127;-34
2023/09/17 06:58:16;;;;;;;17.80;13.65;;;16.80;99.90;;;;;;5004171;28;20402;-33
2023/09/17 07:00:43;;;;;;;17.73;14.23;;;16.80;99.90;;;;;;5008544;28;20042;-34
2023/09/17 07:03:09;;;;;;;17.45;14.30;;;16.80;99.90;;;;;;5005209;28;20054;-34
2023/09/17 07:05:35;;;;;;;19.73;15.32;;;16.80;99.90;;;;;;5007873;28;20388;-34
2023/09/17 07:08:01;;;;;;;20.52;14.43;;;16.80;99.90;;;;;;5005651;28;20116;-34
2023/09/17 07:10:26;;;;;;;20.60;13.52;;;16.80;99.90;;;;;;4991578;28;20057;-34
2023/09/17 07:12:52;;;;;;;17.17;13.93;;;16.80;99.90;;;;;;5008281;28;20117;-34
2023/09/17 07:15:20;;;;;;;16.13;12.75;;;16.80;99.90;;;;;;5008415;28;20095;-34
2023/09/17 07:17:46;;;;;;;22.98;15.93;;;16.80;99.90;;;;;;5004666;28;20060;-34
2023/09/17 07:20:14;;;;;;;19.15;16.17;;;16.80;99.90;;;;;;5005678;28;20045;-34
2023/09/17 07:22:41;;;;;;;17.73;14.57;;;16.90;99.90;;;;;;5004444;28;20480;-34
2023/09/17 07:25:07;;;;;;;21.05;16.58;;;16.90;99.90;;;;;;4993215;28;20114;-34
2023/09/17 07:27:33;;;;;;;20.25;15.63;;;16.90;99.90;;;;;;5005837;28;20041;-34
2023/09/17 07:29:59;;;;;;;25.95;17.42;;;16.90;99.90;;;;;;5006950;28;20052;-34
2023/09/17 07:32:28;;;;;;;19.05;15.27;;;16.90;99.90;;;;;;5004247;28;20064;-34
2023/09/17 07:34:55;;;;;;;17.27;14.07;;;16.90;99.90;;;;;;4992048;28;20045;-34
2023/09/17 07:37:21;;;;;;;17.80;14.60;;;16.90;99.90;;;;;;5007742;28;20507;-34
2023/09/17 07:39:52;;;;;;;14.20;12.18;;;16.90;99.90;;;;;;5004029;28;20046;-34
2023/09/17 07:42:18;;;;;;;18.02;13.93;;;16.90;99.90;;;;;;5008920;28;20046;-34
2023/09/17 07:44:44;;;;;;;18.33;14.05;;;16.90;99.90;;;;;;5009207;28;20045;-34
2023/09/17 07:47:12;;;;;;;18.02;13.85;;;16.90;99.90;;;;;;5007210;28;20551;-34
2023/09/17 07:49:38;;;;;;;17.42;13.27;;;16.90;99.90;;;;;;5005421;28;20096;-34
2023/09/17 07:52:04;;;;;;;18.45;13.43;;;16.90;99.90;;;;;;5000391;28;20042;-34
2023/09/17 07:54:36;;;;;;;15.30;12.63;;;16.90;99.90;;;;;;5002564;28;20060;-34
2023/09/17 07:57:04;;;;;;;20.80;15.32;;;16.90;99.90;;;;;;5002354;28;20053;-34
2023/09/17 07:59:30;;;;;;;16.23;12.77;;;16.90;99.90;;;;;;5002636;28;20092;-34
2023/09/17 08:01:56;;;;;;;16.73;13.45;;;16.90;99.90;;;;;;5004563;28;20096;-34
2023/09/17 08:04:22;;;;;;;18.73;14.75;;;16.90;99.90;;;;;;4989818;28;20057;-34
2023/09/17 08:06:49;;;;;;;16.83;13.05;;;16.90;99.90;;;;;;5004447;28;20455;-34
2023/09/17 08:09:15;;;;;;;17.48;13.55;;;17.00;99.90;;;;;;5007698;28;20185;-34
2023/09/17 08:11:42;;;;;;;16.65;12.00;;;17.00;99.90;;;;;;5008562;28;20050;-34
2023/09/17 08:14:08;;;;;;;21.08;14.27;;;17.00;99.90;;;;;;5001586;28;20052;-34
2023/09/17 08:16:35;;;;;;;15.77;11.70;;;17.00;99.90;;;;;;4988875;28;20053;-34
2023/09/17 08:19:01;;;;;;;15.95;12.15;;;17.00;99.90;;;;;;5001378;28;20050;-34
2023/09/17 08:21:27;;;;;;;15.20;12.50;;;17.00;99.90;;;;;;5002821;28;20060;-34
2023/09/17 08:23:53;;;;;;;18.25;12.60;;;17.00;99.90;;;;;;5004746;28;20050;-34
2023/09/17 08:26:21;;;;;;;17.02;13.25;;;17.00;99.90;;;;;;5006976;28;20054;-34
2023/09/17 08:28:47;;;;;;;16.10;12.35;;;17.00;99.90;;;;;;5008081;28;20128;-34
2023/09/17 08:31:13;;;;;;;15.15;13.23;;;17.00;99.90;;;;;;5006286;28;20054;-34
2023/09/17 08:33:38;;;;;;;15.90;12.52;;;17.00;99.90;;;;;;5005958;28;20115;-35
2023/09/17 08:36:05;;;;;;;15.30;12.38;;;17.00;99.90;;;;;;5005985;28;20038;-34
2023/09/17 08:38:31;;;;;;;17.55;13.43;;;17.00;99.90;;;;;;5007083;28;20054;-34
2023/09/17 08:41:00;;;;;;;17.42;13.43;;;17.00;99.90;;;;;;5005882;28;20506;-34
2023/09/17 08:43:26;;;;;;;16.35;12.52;;;17.00;99.90;;;;;;4999816;28;20049;-34
2023/09/17 08:45:53;;;;;;;15.32;11.63;;;17.00;99.90;;;;;;5005735;28;20157;-34
2023/09/17 08:48:20;;;;;;;16.48;13.15;;;17.10;99.90;;;;;;5000539;28;20049;-34
2023/09/17 08:50:50;;;;;;;19.02;13.55;;;17.10;99.90;;;;;;5000177;28;20053;-34
2023/09/17 08:53:22;;;;;;;18.80;12.63;;;17.20;99.90;;;;;;5002277;28;20592;-34
2023/09/17 08:55:54;;;;;;;17.33;13.33;;;17.20;99.90;;;;;;5001956;28;20053;-34
2023/09/17 08:58:24;;;;;;;;;;;17.30;99.90;;;;;;5004967;28;20045;-34
2023/09/17 09:00:51;;;;;;;16.40;14.10;;;17.30;99.90;;;;;;5003765;28;19924;-34
2023/09/17 09:03:19;;;;;;;18.17;15.52;;;17.30;99.90;;;;;;5004229;28;20412;-34
2023/09/17 09:05:47;;;;;;;18.67;14.55;;;17.40;99.90;;;;;;5003756;28;20065;-34
2023/09/17 09:08:13;;;;;;;17.98;14.65;;;17.50;99.90;;;;;;5002024;28;20042;-34
2023/09/17 09:10:40;;;;;;;17.30;14.13;;;17.60;99.90;;;;;;4987462;28;20112;-34
2023/09/17 09:13:05;;;;;;;20.60;15.05;;;17.60;99.90;;;;;;5000883;28;20490;-34
2023/09/17 09:15:32;;;;;;;19.13;14.45;;;17.70;99.90;;;;;;5005815;28;20042;-35
2023/09/17 09:17:58;;;;;;;18.90;14.52;;;17.90;99.90;;;;;;5006515;28;20041;-34
2023/09/17 09:20:24;;;;;;;16.15;12.90;;;18.00;99.90;;;;;;5003291;28;20404;-34
2023/09/17 09:22:49;;;;;;;17.15;12.90;;;18.00;99.90;;;;;;5003418;28;20050;-34
2023/09/17 09:25:17;;;;;;;18.73;14.95;;;18.10;99.90;;;;;;5000469;28;20049;-34
2023/09/17 09:27:43;;;;;;;20.30;14.30;;;18.20;99.90;;;;;;5005008;28;20669;-34
2023/09/17 09:30:11;;;;;;;17.67;13.07;;;18.20;99.90;;;;;;5005060;28;20053;-34
2023/09/17 09:32:37;;;;;;;19.38;14.63;;;18.30;99.90;;;;;;5003283;28;20057;-34
2023/09/17 09:35:04;;;;;;;18.33;14.82;;;18.40;99.90;;;;;;5008735;28;20053;-34
2023/09/17 09:37:30;;;;;;;20.98;15.32;;;18.50;99.90;;;;;;5010484;28;20068;-34
2023/09/17 09:39:58;;;;;;;19.60;15.15;;;18.70;99.90;;;;;;5010914;28;20058;-34
2023/09/17 09:42:26;;;;;;;19.42;15.30;;;18.80;99.90;;;;;;5010907;28;20054;-34
2023/09/17 09:44:52;;;;;;;20.08;15.15;;;18.80;99.90;;;;;;5013797;28;20045;-34
2023/09/17 09:47:21;;;;;;;19.58;13.13;;;18.90;99.90;;;;;;5007995;28;22227;-34
2023/09/17 09:49:46;;;;;;;16.58;11.40;;;19.00;99.90;;;;;;5012346;28;20499;-34
2023/09/17 09:52:13;;;;;;;17.15;14.00;;;19.00;99.90;;;;;;5013195;28;20065;-34
2023/09/17 09:54:41;;;;;;;16.70;13.55;;;19.10;99.90;;;;;;5010381;28;20068;-34
2023/09/17 09:57:06;;;;;;;20.48;13.85;;;19.00;99.90;;;;;;5010902;28;20060;-34
2023/09/17 09:59:34;;;;;;;16.40;12.82;;;19.10;99.90;;;;;;5007307;28;20050;-34
2023/09/17 10:02:03;;;;;;;15.43;12.32;;;19.10;99.90;;;;;;4998693;28;20140;-34
2023/09/17 10:04:29;;;;;;;19.10;13.50;;;19.20;99.90;;;;;;4994276;28;20062;-34
2023/09/17 10:06:56;;;;;;;17.40;13.05;;;19.20;99.90;;;;;;5014316;28;20467;-34
2023/09/17 10:09:25;;;;;;;18.08;13.75;;;19.20;99.90;;;;;;5009678;28;20064;-34
2023/09/17 10:11:52;;;;;;;16.73;13.68;;;19.40;99.90;;;;;;5012708;28;20067;-34
2023/09/17 10:14:20;;;;;;;14.73;12.40;;;19.40;99.90;;;;;;5011644;28;20045;-34
2023/09/17 10:16:45;;;;;;;17.58;13.18;;;19.50;99.90;;;;;;5013139;28;20092;-34
2023/09/17 10:19:18;;;;;;;14.30;12.55;;;19.70;99.90;;;;;;5010079;28;20073;-34
2023/09/17 10:21:46;;;;;;;15.68;11.95;;;19.80;99.90;;;;;;5012028;28;20491;-34
2023/09/17 10:24:13;;;;;;;15.35;11.77;;;19.90;99.90;;;;;;5006793;28;20591;-34
2023/09/17 10:26:42;;;;;;;17.80;13.38;;;20.00;99.90;;;;;;4975331;28;20208;-34
2023/09/17 10:29:10;;;;;;;16.40;13.43;;;20.10;99.90;;;;;;5011821;28;20573;-34
2023/09/17 10:31:37;;;;;;;16.40;13.00;;;20.20;99.90;;;;;;5009184;28;20066;-34
2023/09/17 10:34:05;;;;;;;15.40;11.80;;;20.30;99.90;;;;;;5012103;28;20041;-34
2023/09/17 10:36:33;;;;;;;17.55;12.90;;;20.30;99.90;;;;;;5009847;28;20547;-35
2023/09/17 10:38:59;;;;;;;16.38;12.07;;;20.30;99.90;;;;;;5010940;28;20076;-35
2023/09/17 10:41:32;;;;;;;16.25;12.60;;;20.40;99.90;;;;;;5009509;28;20052;-34
2023/09/17 10:44:00;;;;;;;14.93;11.57;;;20.40;99.90;;;;;;5008838;28;20408;-34
2023/09/17 10:46:28;;;;;;;17.40;11.82;;;20.40;99.90;;;;;;5007182;28;20326;-34
2023/09/17 10:48:57;;;;;;;16.27;13.20;;;20.40;99.90;;;;;;4988062;28;20057;-34
2023/09/17 10:51:25;;;;;;;16.33;11.43;;;20.40;99.90;;;;;;5003382;28;20043;-34
2023/09/17 10:53:50;;;;;;;16.00;12.75;;;20.40;99.90;;;;;;5004990;28;20538;-34
2023/09/17 10:56:17;;;;;;;17.15;12.93;;;20.40;99.90;;;;;;5004170;28;20050;-34
2023/09/17 10:58:45;;;;;;;17.50;12.75;;;20.40;99.90;;;;;;5004831;28;20167;-35
2023/09/17 11:01:14;;;;;;;18.20;13.90;;;20.40;99.90;;;;;;5002688;28;20574;-35
2023/09/17 11:03:47;;;;;;;14.73;11.98;;;20.40;99.90;;;;;;5004085;28;20073;-34
2023/09/17 11:06:16;;;;;;;16.60;12.55;;;20.40;99.90;;;;;;5006669;28;20073;-35
2023/09/17 11:08:46;;;;;;;15.38;12.23;;;20.40;99.90;;;;;;5005511;28;20046;-35
2023/09/17 11:11:16;;;;;;;15.45;12.13;;;20.40;99.90;;;;;;5006210;28;20050;-35
2023/09/17 11:13:46;;;;;;;15.48;13.07;;;20.40;99.90;;;;;;5004690;28;20081;-34
2023/09/17 11:16:24;;;;;;;15.55;12.25;;;20.50;99.90;;;;;;5005261;28;20061;-35
2023/09/17 11:19:06;;;;;;;15.07;12.65;;;20.60;99.90;;;;;;5008572;28;20068;-35
2023/09/17 11:21:40;;;;;;;15.30;12.60;;;20.70;99.90;;;;;;5005831;28;20054;-34
2023/09/17 11:24:10;;;;;;;15.45;12.95;;;20.80;99.90;;;;;;5002756;28;20123;-34
2023/09/17 11:26:37;;;;;;;13.63;11.63;;;20.80;99.90;;;;;;5014636;28;20465;-35
2023/09/17 11:29:05;;;;;;;13.13;9.80;;;21.00;99.90;;;;;;4988231;28;20062;-35
2023/09/17 11:31:52;;;;;;;16.60;11.80;;;21.10;99.90;;;;;;5002121;28;20076;-35
2023/09/17 11:34:20;;;;;;;14.63;12.07;;;21.20;99.90;;;;;;5008778;28;20053;-35
2023/09/17 11:36:46;;;;;;;16.73;12.55;;;21.20;99.90;;;;;;5003502;28;20054;-34
2023/09/17 11:39:16;;;;;;;13.63;10.50;;;21.10;99.90;;;;;;5002126;28;20475;-35
2023/09/17 11:41:46;;;;;;;16.55;13.38;;;21.00;99.90;;;;;;5002994;28;20100;-35
2023/09/17 11:44:15;;;;;;;13.27;10.50;;;20.80;99.90;;;;;;5003951;28;20053;-35
2023/09/17 11:46:42;;;;;;;15.98;12.52;;;20.80;99.90;;;;;;4999883;28;20602;-35
2023/09/17 11:49:09;;;;;;;13.65;11.55;;;20.70;99.90;;;;;;5005441;28;20459;-35
2023/09/17 11:51:40;;;;;;;15.60;12.52;;;20.70;99.90;;;;;;5004208;28;20496;-34
2023/09/17 11:54:08;;;;;;;15.83;12.87;;;20.60;99.90;;;;;;5007313;28;20046;-35
2023/09/17 11:56:35;;;;;;;17.88;12.30;;;20.60;99.90;;;;;;5003369;28;20045;-35
2023/09/17 11:59:08;;;;;;;16.63;12.98;;;20.50;99.90;;;;;;5005894;28;20056;-35
2023/09/17 12:01:37;;;;;;;15.80;12.20;;;20.50;99.90;;;;;;4998938;28;20550;-34
2023/09/17 12:04:06;;;;;;;18.60;13.10;;;20.50;99.90;;;;;;5002314;28;20137;-35
2023/09/17 12:06:38;;;;;;;17.08;12.82;;;20.50;99.90;;;;;;5005605;28;20467;-34
2023/09/17 12:09:15;;;;;;;15.45;12.80;;;20.60;99.90;;;;;;5000052;28;20046;-35
2023/09/17 12:11:45;;;;;;;17.98;13.93;;;20.70;99.90;;;;;;5005928;28;20042;-35
2023/09/17 12:14:12;;;;;;;16.35;12.65;;;20.80;99.90;;;;;;5005682;28;20535;-35
2023/09/17 12:16:38;;;;;;;16.48;13.10;;;20.90;99.90;;;;;;4994868;28;20541;-35
2023/09/17 12:19:04;;;;;;;18.25;14.00;;;20.90;99.90;;;;;;5002283;28;20041;-35
2023/09/17 12:21:32;;;;;;;16.60;12.77;;;21.00;99.90;;;;;;5002760;28;20080;-34
2023/09/17 12:23:58;;;;;;;15.63;12.73;;;21.00;99.90;;;;;;5001205;28;20057;-35
2023/09/17 12:26:34;;;;;;;17.75;13.80;;;21.00;99.90;;;;;;5001877;28;20050;-34
2023/09/17 12:29:00;;;;;;;17.10;13.65;;;21.00;99.90;;;;;;5007449;28;20046;-34
2023/09/17 12:31:26;;;;;;;16.83;13.13;;;21.00;99.90;;;;;;4986720;28;20514;-35